Time;durP1;ratioP1;P1;durP2;ratioP2;P2;SDS_P1;SDS_P2;PMS_P1;PMS_P2;Temp;Humidity;BMP_temperature;BMP_pressure;BME280_temperature;BME280_humidity;BME280_pressure;Samples;Min_cycle;Max_cycle;Signal;HPM_P1;HPM_P2
2023/12/17 00:01:24;;;;;;;67.13;60.80;;;5.50;99.90;;;;;;5053123;28;20037;-65
2023/12/17 00:03:51;;;;;;;93.30;65.20;;;5.40;99.90;;;;;;5055013;28;20401;-66
2023/12/17 00:06:17;;;;;;;81.57;44.13;;;5.30;99.90;;;;;;5055226;28;20040;-66
2023/12/17 00:08:43;;;;;;;72.90;47.60;;;5.20;99.90;;;;;;5055272;28;20408;-66
2023/12/17 00:11:10;;;;;;;67.73;59.20;;;5.30;99.90;;;;;;5045310;28;20037;-65
2023/12/17 00:13:36;;;;;;;68.43;46.80;;;5.30;99.90;;;;;;5035504;28;20052;-65
2023/12/17 00:16:03;;;;;;;85.33;56.13;;;5.40;99.90;;;;;;5041972;28;20033;-66
2023/12/17 00:18:29;;;;;;;77.20;40.67;;;5.50;99.90;;;;;;5041828;28;20049;-65
2023/12/17 00:20:55;;;;;;;49.80;45.23;;;5.40;99.90;;;;;;5035084;28;20033;-65
2023/12/17 00:23:21;;;;;;;91.73;58.67;;;5.40;99.90;;;;;;5039277;28;20037;-68
2023/12/17 00:25:47;;;;;;;89.10;71.07;;;5.40;99.90;;;;;;5035140;28;20040;-68
2023/12/17 00:28:13;;;;;;;54.63;48.80;;;5.60;99.90;;;;;;5044679;28;20028;-68
2023/12/17 00:30:39;;;;;;;69.07;63.27;;;5.50;99.90;;;;;;5054155;28;20049;-67
2023/12/17 00:33:05;;;;;;;63.40;56.87;;;5.50;99.90;;;;;;5055065;28;20063;-68
2023/12/17 00:35:31;;;;;;;48.70;43.70;;;5.70;99.90;;;;;;5051837;28;20030;-68
2023/12/17 00:37:58;;;;;;;54.23;48.67;;;5.80;99.90;;;;;;5044099;28;20041;-67
2023/12/17 00:40:24;;;;;;;44.10;39.53;;;5.50;99.90;;;;;;5050755;28;20377;-68
2023/12/17 00:42:50;;;;;;;81.27;48.63;;;5.40;99.90;;;;;;5054736;28;20044;-68
2023/12/17 00:45:16;;;;;;;57.60;52.40;;;5.50;99.90;;;;;;5053185;28;20020;-67
2023/12/17 00:47:42;;;;;;;72.77;66.47;;;5.60;99.90;;;;;;5043729;28;20172;-67
2023/12/17 00:50:09;;;;;;;66.03;58.80;;;5.80;99.90;;;;;;5054006;28;20385;-68
2023/12/17 00:52:35;;;;;;;56.83;48.57;;;6.00;99.90;;;;;;5054345;28;20045;-68
2023/12/17 00:55:01;;;;;;;54.93;42.80;;;6.00;99.90;;;;;;5054799;28;20021;-68
2023/12/17 00:57:27;;;;;;;67.17;41.43;;;6.10;99.90;;;;;;5042030;28;20056;-67
2023/12/17 00:59:53;;;;;;;65.73;38.03;;;6.10;99.90;;;;;;5048280;28;20485;-67
2023/12/17 01:02:19;;;;;;;46.70;42.53;;;6.10;99.90;;;;;;5050548;28;20029;-68
2023/12/17 01:04:45;;;;;;;54.03;48.70;;;6.20;99.90;;;;;;5054274;28;20036;-66
2023/12/17 01:07:12;;;;;;;56.90;50.63;;;5.80;99.90;;;;;;5044401;28;20029;-66
2023/12/17 01:09:38;;;;;;;50.27;45.63;;;5.60;99.90;;;;;;5034701;28;20386;-66
2023/12/17 01:12:05;;;;;;;49.67;44.90;;;5.60;99.90;;;;;;5034150;28;20034;-66
2023/12/17 01:14:33;;;;;;;53.10;48.17;;;5.50;99.90;;;;;;5035773;28;20045;-66
2023/12/17 01:16:59;;;;;;;59.17;50.70;;;5.40;99.90;;;;;;5038093;28;20405;-66
2023/12/17 01:19:25;;;;;;;39.93;35.93;;;5.20;99.90;;;;;;5054462;28;20048;-66
2023/12/17 01:21:51;;;;;;;55.77;51.30;;;5.30;99.90;;;;;;5044115;28;20367;-66
2023/12/17 01:24:17;;;;;;;49.10;44.70;;;5.10;99.90;;;;;;5044576;28;20032;-66
2023/12/17 01:26:43;;;;;;;40.67;36.83;;;5.10;99.90;;;;;;5053380;28;20348;-66
2023/12/17 01:29:09;;;;;;;45.27;41.43;;;5.20;99.90;;;;;;5049394;28;20036;-66
2023/12/17 01:31:35;;;;;;;50.20;45.90;;;5.40;99.90;;;;;;5053021;28;20397;-66
2023/12/17 01:34:02;;;;;;;51.80;46.10;;;5.40;99.90;;;;;;5053893;28;20033;-66
2023/12/17 01:36:28;;;;;;;51.00;46.90;;;5.30;99.90;;;;;;5034712;28;20036;-66
2023/12/17 01:38:54;;;;;;;54.73;50.13;;;5.50;99.90;;;;;;5038114;28;20118;-66
2023/12/17 01:41:20;;;;;;;52.93;48.60;;;5.60;99.90;;;;;;5033775;28;20025;-66
2023/12/17 01:43:46;;;;;;;41.63;37.03;;;5.40;99.90;;;;;;5036468;28;20473;-66
2023/12/17 01:46:13;;;;;;;47.33;42.63;;;5.30;99.90;;;;;;5051300;28;20025;-66
2023/12/17 01:48:39;;;;;;;56.87;51.33;;;5.40;99.90;;;;;;5052765;28;20020;-66
2023/12/17 01:51:05;;;;;;;73.97;68.43;;;5.40;99.90;;;;;;5044236;28;20029;-66
2023/12/17 01:53:31;;;;;;;64.87;58.33;;;5.60;99.90;;;;;;5033778;28;20038;-66
2023/12/17 01:55:57;;;;;;;61.93;55.40;;;5.60;99.90;;;;;;5037427;28;20029;-66
2023/12/17 01:58:23;;;;;;;71.77;65.93;;;5.80;99.90;;;;;;5032349;28;20025;-66
2023/12/17 02:00:49;;;;;;;54.57;48.97;;;5.70;99.90;;;;;;5046558;28;20052;-66
2023/12/17 02:03:16;;;;;;;51.63;45.93;;;5.40;99.90;;;;;;5053271;28;20044;-66
2023/12/17 02:05:44;;;;;;;64.50;49.03;;;5.20;99.90;;;;;;5044555;28;20076;-66
2023/12/17 02:08:10;;;;;;;51.40;46.70;;;5.10;99.90;;;;;;5053390;28;20385;-66
2023/12/17 02:10:36;;;;;;;67.10;61.30;;;5.10;99.90;;;;;;5052994;28;20028;-66
2023/12/17 02:13:02;;;;;;;51.83;46.97;;;5.10;99.90;;;;;;5051891;28;20481;-66
2023/12/17 02:15:28;;;;;;;63.13;57.30;;;5.00;99.90;;;;;;5043888;28;20187;-66
2023/12/17 02:17:54;;;;;;;61.10;44.77;;;5.00;99.90;;;;;;5037212;28;20025;-66
2023/12/17 02:20:20;;;;;;;67.43;60.67;;;5.00;99.90;;;;;;5032938;28;20049;-66
2023/12/17 02:22:48;;;;;;;77.10;51.33;;;4.90;99.90;;;;;;5037336;28;20374;-66
2023/12/17 02:25:14;;;;;;;76.13;47.60;;;4.80;99.90;;;;;;5032831;28;20048;-66
2023/12/17 02:27:41;;;;;;;74.07;40.93;;;4.60;99.90;;;;;;5034012;28;20029;-66
2023/12/17 02:30:08;;;;;;;53.80;47.57;;;4.50;99.90;;;;;;5037393;28;20060;-66
2023/12/17 02:32:34;;;;;;;60.17;50.27;;;4.50;99.90;;;;;;5032818;28;20029;-66
2023/12/17 02:35:00;;;;;;;42.37;33.53;;;4.40;99.90;;;;;;5036884;28;20033;-66
2023/12/17 02:37:26;;;;;;;82.93;64.97;;;4.40;99.90;;;;;;5052290;28;20028;-66
2023/12/17 02:39:52;;;;;;;61.37;50.67;;;4.50;99.90;;;;;;5052799;28;20040;-66
2023/12/17 02:42:19;;;;;;;75.80;59.53;;;4.50;99.90;;;;;;5051999;28;20035;-66
2023/12/17 02:44:45;;;;;;;48.63;44.03;;;4.50;99.90;;;;;;5046244;28;20045;-66
2023/12/17 02:47:11;;;;;;;68.53;56.53;;;4.40;99.90;;;;;;5031819;28;20034;-66
2023/12/17 02:49:37;;;;;;;74.03;53.60;;;4.40;99.90;;;;;;5032970;28;20048;-66
2023/12/17 02:52:03;;;;;;;52.17;33.27;;;4.30;99.90;;;;;;5032410;28;20040;-66
2023/12/17 02:54:29;;;;;;;48.63;44.03;;;4.30;99.90;;;;;;5030908;28;20049;-66
2023/12/17 02:56:55;;;;;;;33.43;30.20;;;4.20;99.90;;;;;;5040099;28;20021;-66
2023/12/17 02:59:22;;;;;;;37.80;31.97;;;4.20;99.90;;;;;;5034167;28;20041;-66
2023/12/17 03:01:48;;;;;;;45.10;31.27;;;4.10;99.90;;;;;;5051028;28;20424;-66
2023/12/17 03:04:14;;;;;;;38.83;34.83;;;4.00;99.90;;;;;;5039706;28;20029;-66
2023/12/17 03:06:40;;;;;;;48.60;45.83;;;4.00;99.90;;;;;;5036724;28;20033;-66
2023/12/17 03:09:06;;;;;;;68.00;47.07;;;3.90;99.90;;;;;;5047597;28;20052;-66
2023/12/17 03:11:32;;;;;;;58.83;34.30;;;3.70;99.90;;;;;;5046392;28;20482;-66
2023/12/17 03:13:58;;;;;;;32.57;29.30;;;3.70;99.90;;;;;;5040900;28;20045;-66
2023/12/17 03:16:26;;;;;;;96.97;42.03;;;3.80;99.90;;;;;;5031250;28;20033;-66
2023/12/17 03:18:52;;;;;;;79.30;43.87;;;3.80;99.90;;;;;;5050040;28;20052;-67
2023/12/17 03:21:18;;;;;;;60.23;42.73;;;3.80;99.90;;;;;;5048865;28;20036;-66
2023/12/17 03:23:45;;;;;;;53.07;38.67;;;3.80;99.90;;;;;;5032907;28;20528;-66
2023/12/17 03:26:11;;;;;;;93.43;39.63;;;3.80;99.90;;;;;;5031335;28;20457;-67
2023/12/17 03:28:37;;;;;;;42.30;35.13;;;3.90;99.90;;;;;;5032158;28;20036;-66
2023/12/17 03:31:03;;;;;;;40.23;36.30;;;3.80;99.90;;;;;;5031289;28;20470;-66
2023/12/17 03:33:29;;;;;;;41.83;34.13;;;4.00;99.90;;;;;;5046242;28;20045;-66
2023/12/17 03:35:55;;;;;;;37.60;34.03;;;3.90;99.90;;;;;;5051655;28;20033;-66
2023/12/17 03:38:22;;;;;;;35.00;31.10;;;3.90;99.90;;;;;;5052006;28;20040;-66
2023/12/17 03:40:48;;;;;;;67.90;28.77;;;4.00;99.90;;;;;;5045107;28;20026;-66
2023/12/17 03:43:14;;;;;;;39.57;30.77;;;4.20;99.90;;;;;;5048055;28;20119;-66
2023/12/17 03:45:40;;;;;;;40.40;36.53;;;4.10;99.90;;;;;;5036481;28;20429;-66
2023/12/17 03:48:06;;;;;;;34.43;31.37;;;4.00;99.90;;;;;;5031946;28;20037;-66
2023/12/17 03:50:32;;;;;;;42.47;28.97;;;4.10;99.90;;;;;;5031818;28;20044;-66
2023/12/17 03:52:58;;;;;;;57.80;30.03;;;4.00;99.90;;;;;;5045676;28;20051;-66
2023/12/17 03:55:24;;;;;;;37.40;29.60;;;4.10;99.90;;;;;;5046856;28;20041;-66
2023/12/17 03:57:50;;;;;;;38.00;31.00;;;4.20;99.90;;;;;;5051846;28;20036;-67
2023/12/17 04:00:17;;;;;;;31.57;26.93;;;4.10;99.90;;;;;;5050805;28;20406;-66
2023/12/17 04:02:43;;;;;;;47.37;43.10;;;4.10;99.90;;;;;;5043454;28;20045;-66
2023/12/17 04:05:09;;;;;;;52.10;47.93;;;4.00;99.90;;;;;;5032043;28;20053;-66
2023/12/17 04:07:35;;;;;;;36.77;33.03;;;3.90;99.90;;;;;;5047683;28;20418;-66
2023/12/17 04:10:01;;;;;;;55.70;43.03;;;3.80;99.90;;;;;;5051573;28;20036;-66
2023/12/17 04:12:27;;;;;;;34.43;31.03;;;3.90;99.90;;;;;;5042520;28;20037;-66
2023/12/17 04:14:54;;;;;;;32.70;29.57;;;3.90;99.90;;;;;;5044293;28;20527;-66
2023/12/17 04:17:20;;;;;;;37.20;30.63;;;3.90;99.90;;;;;;5050888;28;20033;-66
2023/12/17 04:19:46;;;;;;;39.83;36.23;;;3.80;99.90;;;;;;5051327;28;20048;-66
2023/12/17 04:22:12;;;;;;;110.50;32.27;;;3.80;99.90;;;;;;5042062;28;20029;-66
2023/12/17 04:24:38;;;;;;;44.87;27.90;;;3.90;99.90;;;;;;5031472;28;20057;-66
2023/12/17 04:27:06;;;;;;;33.90;25.17;;;4.00;99.90;;;;;;5031426;28;20049;-67
2023/12/17 04:29:32;;;;;;;63.60;32.83;;;4.00;99.90;;;;;;5031968;28;20053;-66
2023/12/17 04:31:58;;;;;;;45.33;31.90;;;3.90;99.90;;;;;;5034855;28;20041;-66
2023/12/17 04:34:24;;;;;;;53.97;27.67;;;4.00;99.90;;;;;;5035573;28;20052;-66
2023/12/17 04:36:50;;;;;;;34.93;27.00;;;4.00;99.90;;;;;;5046081;28;20029;-66
2023/12/17 04:39:16;;;;;;;60.13;37.17;;;3.90;99.90;;;;;;5054986;28;20041;-67
2023/12/17 04:41:42;;;;;;;66.37;35.70;;;3.90;99.90;;;;;;5043605;28;20036;-66
2023/12/17 04:44:09;;;;;;;43.87;31.00;;;4.10;99.90;;;;;;5054222;28;20037;-66
2023/12/17 04:46:35;;;;;;;60.77;41.77;;;4.10;99.90;;;;;;5045416;28;20028;-66
2023/12/17 04:49:01;;;;;;;48.43;29.17;;;4.10;99.90;;;;;;5054748;28;20032;-66
2023/12/17 04:51:27;;;;;;;50.57;35.53;;;4.10;99.90;;;;;;5054269;28;20409;-67
2023/12/17 04:53:53;;;;;;;52.70;40.93;;;4.10;99.90;;;;;;5035631;28;20057;-66
2023/12/17 04:56:19;;;;;;;62.77;45.00;;;4.30;99.90;;;;;;5039067;28;20650;-67
2023/12/17 04:58:45;;;;;;;50.03;38.07;;;4.40;99.90;;;;;;5052875;28;20049;-67
2023/12/17 05:01:11;;;;;;;55.27;49.77;;;4.50;99.90;;;;;;5050667;28;20033;-66
2023/12/17 05:03:38;;;;;;;52.30;33.37;;;4.50;99.90;;;;;;5051375;28;20478;-66
2023/12/17 05:06:05;;;;;;;70.73;33.40;;;4.50;99.90;;;;;;5054962;28;20037;-66
2023/12/17 05:08:31;;;;;;;104.67;37.47;;;4.60;99.90;;;;;;5053189;28;20041;-67
2023/12/17 05:10:57;;;;;;;57.07;53.40;;;4.60;99.90;;;;;;5047990;28;20129;-66
2023/12/17 05:13:23;;;;;;;54.03;50.13;;;4.30;99.90;;;;;;5048842;28;20516;-66
2023/12/17 05:15:49;;;;;;;50.03;45.00;;;4.20;99.90;;;;;;5053550;28;20045;-66
2023/12/17 05:18:15;;;;;;;57.27;48.87;;;4.00;99.90;;;;;;5054604;28;20471;-66
2023/12/17 05:20:41;;;;;;;1020.00;134.47;;;4.00;99.90;;;;;;5051750;28;20055;-67
2023/12/17 05:23:12;;;;;;;66.53;43.30;;;4.10;99.90;;;;;;5053791;28;20029;-67
2023/12/17 05:25:39;;;;;;;32.25;30.15;;;4.10;99.90;;;;;;5050882;28;20047;-66
2023/12/17 05:28:08;;;;;;;58.20;35.37;;;4.00;99.90;;;;;;5050139;28;20052;-66
2023/12/17 05:30:34;;;;;;;56.80;41.50;;;4.00;99.90;;;;;;5052659;28;20037;-66
2023/12/17 05:33:00;;;;;;;76.63;50.17;;;4.10;99.90;;;;;;5053502;28;20499;-67
2023/12/17 05:35:26;;;;;;;34.13;29.07;;;4.10;99.90;;;;;;5052973;28;20045;-66
2023/12/17 05:37:52;;;;;;;73.30;46.20;;;4.10;99.90;;;;;;5037803;28;20049;-67
2023/12/17 05:40:18;;;;;;;49.40;44.13;;;4.10;99.90;;;;;;5033199;28;20101;-67
2023/12/17 05:42:44;;;;;;;64.73;54.53;;;4.10;99.90;;;;;;5052428;28;20520;-67
2023/12/17 05:45:10;;;;;;;58.33;52.17;;;4.10;99.90;;;;;;5052857;28;20040;-67
2023/12/17 05:47:38;;;;;;;48.13;38.90;;;4.10;99.90;;;;;;5046978;28;20025;-67
2023/12/17 05:50:04;;;;;;;52.80;43.03;;;4.10;99.90;;;;;;5053072;28;20413;-68
2023/12/17 05:52:31;;;;;;;91.73;82.73;;;4.10;99.90;;;;;;5038468;28;20037;-67
2023/12/17 05:54:57;;;;;;;64.13;57.40;;;4.10;99.90;;;;;;5037483;28;20512;-67
2023/12/17 05:57:23;;;;;;;78.00;69.87;;;4.20;99.90;;;;;;5036296;28;20044;-67
2023/12/17 05:59:49;;;;;;;67.37;47.47;;;4.30;99.90;;;;;;5044979;28;20049;-67
2023/12/17 06:02:16;;;;;;;38.53;35.07;;;4.20;99.90;;;;;;5042775;28;20037;-67
2023/12/17 06:04:42;;;;;;;56.10;50.63;;;4.30;99.90;;;;;;5052253;28;20037;-66
2023/12/17 06:07:08;;;;;;;59.37;52.60;;;4.30;99.90;;;;;;5052837;28;20025;-66
2023/12/17 06:09:34;;;;;;;62.47;46.07;;;4.40;99.90;;;;;;5053359;28;20040;-67
2023/12/17 06:12:00;;;;;;;61.20;44.77;;;4.40;99.90;;;;;;5047651;28;20378;-66
2023/12/17 06:14:28;;;;;;;50.07;42.33;;;4.40;99.90;;;;;;5042209;28;20059;-67
2023/12/17 06:16:54;;;;;;;55.60;44.73;;;4.40;99.90;;;;;;5050522;28;20041;-67
2023/12/17 06:19:20;;;;;;;64.27;49.93;;;4.40;99.90;;;;;;5052494;28;20056;-66
2023/12/17 06:21:46;;;;;;;239.13;63.03;;;4.40;99.90;;;;;;5051471;28;20048;-67
2023/12/17 06:24:13;;;;;;;77.70;57.80;;;4.40;99.90;;;;;;5045624;28;20036;-67
2023/12/17 06:26:39;;;;;;;53.10;47.60;;;4.40;99.90;;;;;;5032821;28;20112;-67
2023/12/17 06:29:05;;;;;;;65.63;59.53;;;4.50;99.90;;;;;;5031407;28;20046;-67
2023/12/17 06:31:31;;;;;;;71.13;63.83;;;4.50;99.90;;;;;;5035686;28;20040;-67
2023/12/17 06:33:57;;;;;;;84.47;76.50;;;4.50;99.90;;;;;;5033069;28;20044;-67
2023/12/17 06:36:23;;;;;;;65.83;59.67;;;4.50;99.90;;;;;;5052474;28;20040;-67
2023/12/17 06:38:49;;;;;;;43.13;39.13;;;4.40;99.90;;;;;;5052691;28;20047;-67
2023/12/17 06:41:16;;;;;;;47.73;44.50;;;4.30;99.90;;;;;;5043642;28;20037;-67
2023/12/17 06:43:42;;;;;;;66.80;60.63;;;4.30;99.90;;;;;;5033208;28;20390;-67
2023/12/17 06:46:09;;;;;;;62.17;56.33;;;4.30;99.90;;;;;;5037186;28;20029;-67
2023/12/17 06:48:35;;;;;;;63.83;57.40;;;4.30;99.90;;;;;;5051991;28;20056;-67
2023/12/17 06:51:01;;;;;;;34.17;30.77;;;4.30;99.90;;;;;;5045171;28;20641;-67
2023/12/17 06:53:28;;;;;;;49.47;44.43;;;4.30;99.90;;;;;;5033238;28;20053;-67
2023/12/17 06:55:54;;;;;;;35.17;32.13;;;4.30;99.90;;;;;;5044772;28;20036;-66
2023/12/17 06:58:20;;;;;;;50.60;45.30;;;4.30;99.90;;;;;;5050843;28;20047;-67
2023/12/17 07:00:46;;;;;;;50.27;45.13;;;4.30;99.90;;;;;;5046395;28;20703;-67
2023/12/17 07:03:12;;;;;;;62.80;52.70;;;4.30;99.90;;;;;;5031903;28;20048;-67
2023/12/17 07:05:39;;;;;;;44.27;39.07;;;4.30;99.90;;;;;;5039727;28;20050;-67
2023/12/17 07:08:05;;;;;;;52.30;46.80;;;4.30;99.90;;;;;;5032166;28;20482;-67
2023/12/17 07:10:31;;;;;;;57.87;50.97;;;4.40;99.90;;;;;;5032246;28;20037;-67
2023/12/17 07:12:57;;;;;;;54.83;49.53;;;4.40;99.90;;;;;;5032463;28;20033;-67
2023/12/17 07:15:23;;;;;;;38.53;32.03;;;4.40;99.90;;;;;;5041065;28;20053;-67
2023/12/17 07:17:51;;;;;;;43.33;38.67;;;4.40;99.90;;;;;;5051770;28;20484;-66
2023/12/17 07:20:17;;;;;;;57.20;51.60;;;4.40;99.90;;;;;;5048954;28;20048;-67
2023/12/17 07:22:43;;;;;;;46.37;41.47;;;4.40;99.90;;;;;;5041484;28;20045;-66
2023/12/17 07:25:09;;;;;;;46.93;42.80;;;4.40;99.90;;;;;;5044916;28;20029;-66
2023/12/17 07:27:36;;;;;;;45.23;41.20;;;4.40;99.90;;;;;;5032195;28;20044;-67
2023/12/17 07:30:02;;;;;;;80.37;73.77;;;4.40;99.90;;;;;;5050854;28;20021;-67
2023/12/17 07:32:28;;;;;;;50.87;46.40;;;4.40;99.90;;;;;;5044748;28;20071;-67
2023/12/17 07:34:54;;;;;;;43.20;39.23;;;4.60;99.90;;;;;;5037117;28;20064;-67
2023/12/17 07:37:20;;;;;;;61.47;56.13;;;4.50;99.90;;;;;;5040677;28;20028;-66
2023/12/17 07:39:46;;;;;;;73.27;67.03;;;4.40;99.90;;;;;;5051419;28;20044;-66
2023/12/17 07:42:12;;;;;;;109.90;55.67;;;4.50;99.90;;;;;;5049522;28;20017;-66
2023/12/17 07:44:38;;;;;;;56.93;51.57;;;4.50;99.90;;;;;;5047118;28;20041;-67
2023/12/17 07:47:05;;;;;;;80.23;73.67;;;4.50;99.90;;;;;;5045639;28;20045;-66
2023/12/17 07:49:31;;;;;;;84.50;77.33;;;4.50;99.90;;;;;;5051399;28;20056;-66
2023/12/17 07:51:58;;;;;;;68.13;61.93;;;4.50;99.90;;;;;;5051546;28;20036;-67
2023/12/17 07:54:24;;;;;;;55.33;49.87;;;4.60;99.90;;;;;;5050804;28;20052;-67
2023/12/17 07:56:50;;;;;;;63.17;57.77;;;4.70;99.90;;;;;;5049159;28;20053;-67
2023/12/17 07:59:16;;;;;;;78.43;72.10;;;4.70;99.90;;;;;;5051726;28;20033;-66
2023/12/17 08:01:42;;;;;;;72.37;66.50;;;4.60;99.90;;;;;;5049039;28;20040;-67
2023/12/17 08:04:09;;;;;;;1075.80;138.33;;;4.60;99.90;;;;;;5032071;28;20025;-67
2023/12/17 08:06:35;;;;;;;62.70;56.60;;;4.70;99.90;;;;;;5036507;28;20060;-67
2023/12/17 08:09:01;;;;;;;69.17;62.50;;;4.90;99.90;;;;;;5031954;28;20424;-67
2023/12/17 08:11:27;;;;;;;54.30;48.67;;;5.00;99.90;;;;;;5033897;28;20033;-67
2023/12/17 08:13:53;;;;;;;59.33;53.30;;;4.90;99.90;;;;;;5035961;28;20037;-67
2023/12/17 08:16:19;;;;;;;63.30;57.57;;;5.00;99.90;;;;;;5050893;28;20045;-67
2023/12/17 08:18:45;;;;;;;146.90;68.70;;;5.00;99.90;;;;;;5054912;28;20453;-67
2023/12/17 08:21:11;;;;;;;65.77;56.63;;;5.10;99.90;;;;;;5054410;28;20037;-67
2023/12/17 08:23:37;;;;;;;65.73;59.33;;;5.10;99.90;;;;;;5054680;28;20051;-67
2023/12/17 08:26:04;;;;;;;92.80;85.53;;;5.00;99.90;;;;;;5054097;28;20029;-67
2023/12/17 08:28:30;;;;;;;75.90;69.40;;;4.90;99.90;;;;;;5054648;28;20489;-67
2023/12/17 08:30:56;;;;;;;63.73;57.77;;;5.00;99.90;;;;;;5051298;28;20037;-67
2023/12/17 08:33:22;;;;;;;58.63;53.10;;;5.10;99.90;;;;;;5046335;28;20040;-67
2023/12/17 08:35:48;;;;;;;56.03;50.63;;;5.20;99.90;;;;;;5053749;28;20040;-67
2023/12/17 08:38:14;;;;;;;46.33;41.67;;;5.30;99.90;;;;;;5038398;28;20410;-67
2023/12/17 08:40:40;;;;;;;60.57;55.43;;;5.10;99.90;;;;;;5039163;28;20037;-67
2023/12/17 08:43:07;;;;;;;57.57;52.60;;;4.90;99.90;;;;;;5049571;28;20040;-67
2023/12/17 08:45:34;;;;;;;55.40;50.77;;;4.80;99.90;;;;;;5049949;28;20040;-67
2023/12/17 08:48:00;;;;;;;86.93;80.27;;;4.80;99.90;;;;;;5034836;28;20056;-67
2023/12/17 08:50:26;;;;;;;77.90;71.63;;;4.90;99.90;;;;;;5041165;28;20367;-67
2023/12/17 08:52:52;;;;;;;76.63;70.60;;;5.10;99.90;;;;;;5042171;28;20060;-67
2023/12/17 08:55:22;;;;;;;86.83;80.63;;;5.00;99.90;;;;;;5053270;28;20064;-67
2023/12/17 08:57:48;;;;;;;56.13;51.33;;;5.00;99.90;;;;;;5043684;28;20048;-66
2023/12/17 09:00:16;;;;;;;44.73;40.20;;;5.20;99.90;;;;;;5051343;28;20041;-67
2023/12/17 09:02:42;;;;;;;84.17;78.37;;;5.40;99.90;;;;;;5039594;28;20037;-67
2023/12/17 09:05:08;;;;;;;39.27;35.40;;;5.30;99.90;;;;;;5036700;28;20052;-67
2023/12/17 09:07:34;;;;;;;61.43;56.67;;;5.10;99.90;;;;;;5038307;28;20037;-67
2023/12/17 09:10:00;;;;;;;40.03;36.43;;;5.00;99.90;;;;;;5039304;28;20037;-67
2023/12/17 09:12:27;;;;;;;43.93;39.80;;;5.00;99.90;;;;;;5053035;28;20037;-66
2023/12/17 09:14:53;;;;;;;63.10;57.47;;;5.00;99.90;;;;;;5053556;28;20465;-67
2023/12/17 09:17:19;;;;;;;39.23;35.67;;;5.10;99.90;;;;;;5033926;28;20036;-67
2023/12/17 09:19:45;;;;;;;45.40;41.30;;;5.20;99.90;;;;;;5041422;28;20057;-67
2023/12/17 09:22:11;;;;;;;86.53;80.43;;;5.30;99.90;;;;;;5037354;28;20025;-67
2023/12/17 09:24:37;;;;;;;205.00;191.43;;;5.30;99.90;;;;;;5054235;28;20025;-67
2023/12/17 09:27:03;;;;;;;420.03;187.73;;;5.40;99.90;;;;;;5044336;28;20401;-68
2023/12/17 09:29:30;;;;;;;37.70;33.90;;;5.50;99.90;;;;;;5034217;28;20555;-67
2023/12/17 09:31:56;;;;;;;87.53;81.43;;;5.50;99.90;;;;;;5038541;28;20041;-67
2023/12/17 09:34:22;;;;;;;43.27;39.63;;;5.50;99.90;;;;;;5053902;28;20472;-63
2023/12/17 09:36:48;;;;;;;44.33;40.63;;;5.60;99.90;;;;;;5053521;28;20038;-66
2023/12/17 09:39:14;;;;;;;60.43;55.93;;;6.10;99.90;;;;;;5053479;28;20409;-68
2023/12/17 09:41:43;;;;;;;52.43;48.07;;;6.40;99.90;;;;;;5048884;28;20049;-70
2023/12/17 09:44:09;;;;;;;65.60;44.63;;;6.80;99.90;;;;;;5033700;28;20041;-67
2023/12/17 09:46:35;;;;;;;50.20;45.83;;;6.90;99.90;;;;;;5032039;28;20041;-66
2023/12/17 09:49:01;;;;;;;50.50;46.10;;;6.60;99.90;;;;;;5033500;28;20038;-67
2023/12/17 09:51:28;;;;;;;56.17;52.00;;;6.30;99.90;;;;;;5040947;28;20048;-62
2023/12/17 09:53:55;;;;;;;46.97;43.07;;;6.60;99.90;;;;;;5014876;28;20030;-65
2023/12/17 09:56:21;;;;;;;94.73;88.47;;;7.10;99.90;;;;;;5031707;28;20041;-65
2023/12/17 09:58:47;;;;;;;124.65;116.50;;;7.30;99.90;;;;;;5031901;28;20029;-65
2023/12/17 10:01:13;;;;;;;60.70;55.60;;;7.50;99.90;;;;;;5032708;28;20486;-66
2023/12/17 10:03:39;;;;;;;52.97;48.22;;;7.50;99.90;;;;;;5043346;28;20036;-65
2023/12/17 10:06:06;;;;;;;43.33;39.72;;;7.60;99.90;;;;;;5051346;28;20077;-65
2023/12/17 10:08:33;;;;;;;54.90;50.42;;;7.50;99.90;;;;;;5048875;28;20052;-64
2023/12/17 10:11:00;;;;;;;46.20;42.45;;;7.60;99.90;;;;;;5047328;28;20045;-65
2023/12/17 10:13:26;;;;;;;52.05;47.65;;;7.60;99.90;;;;;;5035881;28;20034;-65
2023/12/17 10:15:53;;;;;;;52.13;47.90;;;7.70;99.90;;;;;;5032453;28;20045;-66
2023/12/17 10:18:20;;;;;;;72.60;67.60;;;7.60;99.90;;;;;;5031812;28;20022;-67
2023/12/17 10:20:46;;;;;;;75.85;70.95;;;7.20;99.90;;;;;;5032009;28;20060;-68
2023/12/17 10:23:12;;;;;;;76.67;71.57;;;6.60;99.90;;;;;;5045822;28;20044;-68
2023/12/17 10:25:39;;;;;;;80.63;75.10;;;6.30;99.90;;;;;;5039117;28;20029;-68
2023/12/17 10:28:06;;;;;;;74.00;68.77;;;6.10;99.90;;;;;;5030521;28;20045;-68
2023/12/17 10:30:32;;;;;;;76.83;71.70;;;6.00;99.90;;;;;;5030649;28;20041;-68
2023/12/17 10:33:00;;;;;;;61.53;57.13;;;6.10;99.90;;;;;;5032589;28;20044;-68
2023/12/17 10:35:26;;;;;;;58.93;54.63;;;6.30;99.90;;;;;;5038311;28;20466;-68
2023/12/17 10:37:54;;;;;;;63.80;59.23;;;6.30;99.90;;;;;;5052427;28;20335;-68
2023/12/17 10:40:21;;;;;;;50.20;46.40;;;6.20;99.90;;;;;;5048508;28;20052;-68
2023/12/17 10:42:48;;;;;;;64.60;60.10;;;6.30;99.90;;;;;;5042754;28;20528;-68
2023/12/17 10:45:15;;;;;;;58.00;53.43;;;6.40;99.90;;;;;;5050548;28;20028;-68
2023/12/17 10:47:41;;;;;;;54.47;50.17;;;6.20;99.90;;;;;;5049972;28;20029;-68
2023/12/17 10:50:07;;;;;;;110.90;104.23;;;6.00;99.90;;;;;;5050531;28;20331;-67
2023/12/17 10:52:33;;;;;;;65.60;60.57;;;5.80;99.90;;;;;;5031626;28;20033;-67
2023/12/17 10:54:59;;;;;;;113.40;106.50;;;5.70;99.90;;;;;;5042018;28;20068;-67
2023/12/17 10:57:26;;;;;;;102.13;95.77;;;5.60;99.90;;;;;;5051446;28;20045;-67
2023/12/17 10:59:52;;;;;;;46.23;42.17;;;5.50;99.90;;;;;;5051817;28;20033;-67
2023/12/17 11:02:19;;;;;;;63.83;59.03;;;5.50;99.90;;;;;;5045712;28;20416;-67
2023/12/17 11:04:45;;;;;;;74.63;69.47;;;5.70;99.90;;;;;;5033356;28;20103;-68
2023/12/17 11:07:30;;;;;;;81.70;76.17;;;5.90;99.90;;;;;;5044065;28;20478;-67
2023/12/17 11:09:58;;;;;;;74.77;69.90;;;6.10;99.90;;;;;;5015975;28;20037;-67
2023/12/17 11:12:24;;;;;;;70.50;65.53;;;6.30;99.90;;;;;;5036879;28;20041;-69
2023/12/17 11:14:50;;;;;;;43.47;39.77;;;6.40;99.90;;;;;;5051674;28;20037;-69
2023/12/17 11:17:16;;;;;;;44.20;40.53;;;6.40;99.90;;;;;;5034908;28;20053;-69
2023/12/17 11:19:52;;;;;;;49.70;45.73;;;6.50;99.90;;;;;;5030762;28;20053;-69
2023/12/17 11:22:20;;;;;;;54.70;50.13;;;6.70;99.90;;;;;;5043455;28;20042;-69
2023/12/17 11:24:47;;;;;;;988.93;137.13;;;6.80;99.90;;;;;;5030352;28;20021;-68
2023/12/17 11:27:13;;;;;;;54.13;50.03;;;6.80;99.90;;;;;;5013821;28;20425;-69
2023/12/17 11:29:39;;;;;;;55.43;51.23;;;6.80;99.90;;;;;;5032266;28;20040;-69
2023/12/17 11:32:05;;;;;;;45.43;41.63;;;6.50;99.90;;;;;;5031252;28;20041;-69
2023/12/17 11:34:31;;;;;;;47.13;43.53;;;6.60;99.90;;;;;;5031410;28;20042;-69
2023/12/17 11:36:58;;;;;;;57.13;52.87;;;6.60;99.90;;;;;;5030212;28;20041;-69
2023/12/17 11:39:26;;;;;;;44.07;40.63;;;6.50;99.90;;;;;;5043035;28;20055;-69
2023/12/17 11:41:52;;;;;;;69.80;65.17;;;6.30;99.90;;;;;;5041545;28;20472;-69
2023/12/17 11:44:18;;;;;;;89.50;83.13;;;6.10;99.90;;;;;;5051151;28;20032;-68
2023/12/17 11:46:48;;;;;;;119.57;112.37;;;6.00;99.90;;;;;;5049801;28;20041;-69
2023/12/17 11:49:22;;;;;;;74.67;69.73;;;5.90;99.90;;;;;;5055536;28;20390;-69
2023/12/17 11:51:48;;;;;;;67.60;62.67;;;5.80;99.90;;;;;;5041368;28;20049;-69
2023/12/17 11:54:20;;;;;;;109.10;102.80;;;5.70;99.90;;;;;;5037268;28;20037;-68
2023/12/17 11:56:47;;;;;;;78.63;73.70;;;5.60;99.90;;;;;;5054572;28;20041;-69
2023/12/17 11:59:14;;;;;;;81.20;76.10;;;5.60;99.90;;;;;;5054596;28;20029;-68
2023/12/17 12:01:40;;;;;;;76.47;71.37;;;5.60;99.90;;;;;;5054812;28;20052;-68
2023/12/17 12:04:06;;;;;;;50.90;47.10;;;5.60;99.90;;;;;;5053917;28;20040;-69
2023/12/17 12:06:32;;;;;;;75.50;70.53;;;5.70;99.90;;;;;;5053982;28;20040;-68
2023/12/17 12:08:59;;;;;;;51.33;36.97;;;5.80;99.90;;;;;;5054302;28;20025;-68
2023/12/17 12:11:34;;;;;;;40.90;37.50;;;5.90;99.90;;;;;;5051041;28;20060;-69
2023/12/17 12:14:00;;;;;;;63.90;59.40;;;6.10;99.90;;;;;;5052961;28;20033;-69
2023/12/17 12:16:27;;;;;;;41.37;38.00;;;5.90;99.90;;;;;;5043654;28;20057;-69
2023/12/17 12:19:01;;;;;;;42.10;37.80;;;5.90;99.90;;;;;;5052034;28;20037;-69
2023/12/17 12:21:27;;;;;;;40.77;37.07;;;6.20;99.90;;;;;;5049823;28;20060;-69
2023/12/17 12:23:54;;;;;;;55.33;51.33;;;6.20;99.90;;;;;;5037309;28;20029;-69
2023/12/17 12:26:24;;;;;;;54.63;49.90;;;6.10;99.90;;;;;;5044718;28;20481;-69
2023/12/17 12:29:06;;;;;;;57.43;52.73;;;6.00;99.90;;;;;;5040264;28;20025;-69
2023/12/17 12:31:32;;;;;;;86.23;53.67;;;5.90;99.90;;;;;;5041349;28;20398;-69